Time;durP1;ratioP1;P1;durP2;ratioP2;P2;SDS_P1;SDS_P2;PMS_P1;PMS_P2;Temp;Humidity;BMP_temperature;BMP_pressure;BME280_temperature;BME280_humidity;BME280_pressure;Samples;Min_cycle;Max_cycle;Signal;HPM_P1;HPM_P2
2021/11/04 00:01:41;;;;;;;3.58;2.90;;;;;;;;;;5014885;28;20053;-63
2021/11/04 00:04:27;;;;;;;4.40;2.67;;;;;;;;;;5002118;28;20068;-63
2021/11/04 00:07:13;;;;;;;8.15;2.70;;;;;;;;;;5009126;28;20056;-62
2021/11/04 00:09:58;;;;;;;4.43;3.03;;;;;;;;;;5015559;28;20060;-63
2021/11/04 00:12:43;;;;;;;4.95;3.38;;;;;;;;;;5009917;28;20060;-61
2021/11/04 00:15:29;;;;;;;5.28;2.42;;;;;;;;;;5007564;28;20059;-75
2021/11/04 00:18:14;;;;;;;7.28;3.35;;;;;;;;;;5003216;28;20035;-73
2021/11/04 00:20:59;;;;;;;6.40;2.97;;;;;;;;;;5007693;28;20033;-74
2021/11/04 00:23:44;;;;;;;6.07;2.70;;;;;;;;;;5015181;28;20029;-73
2021/11/04 00:26:30;;;;;;;4.45;2.53;;;;;;;;;;5011463;28;20038;-75
2021/11/04 00:29:15;;;;;;;4.53;2.60;;;;;;;;;;5007801;28;20496;-73
2021/11/04 00:32:00;;;;;;;5.90;2.78;;;;;;;;;;5012752;28;20029;-64
2021/11/04 00:34:46;;;;;;;4.68;2.20;;;;;;;;;;5011420;28;20041;-73
2021/11/04 00:37:31;;;;;;;3.80;2.33;;;;;;;;;;5014201;28;20034;-73
2021/11/04 00:40:19;;;;;;;3.95;2.33;;;;;;;;;;5015675;28;20040;-74
2021/11/04 00:43:04;;;;;;;6.60;2.90;;;;;;;;;;5010474;28;20116;-75
2021/11/04 00:45:49;;;;;;;3.17;2.47;;;;;;;;;;5015790;28;20534;-75
2021/11/04 00:48:35;;;;;;;3.83;2.55;;;;;;;;;;5014310;28;20455;-61
2021/11/04 00:51:20;;;;;;;4.93;2.33;;;;;;;;;;5015961;28;20029;-59
2021/11/04 00:54:05;;;;;;;3.67;2.47;;;;;;;;;;5014025;28;20136;-71
2021/11/04 00:56:50;;;;;;;3.78;2.33;;;;;;;;;;5011059;28;20029;-71
2021/11/04 00:59:36;;;;;;;2.95;2.17;;;;;;;;;;5008817;28;20143;-71
2021/11/04 01:02:21;;;;;;;4.38;2.20;;;;;;;;;;5004807;28;20403;-74
2021/11/04 01:05:07;;;;;;;3.33;2.20;;;;;;;;;;5011775;28;20112;-71
2021/11/04 01:07:53;;;;;;;3.63;2.05;;;;;;;;;;4998359;28;20029;-71
2021/11/04 01:10:38;;;;;;;6.38;2.47;;;;;;;;;;5012602;28;20087;-60
2021/11/04 01:13:24;;;;;;;2.88;2.00;;;;;;;;;;5007702;28;20025;-60
2021/11/04 01:16:09;;;;;;;3.15;2.10;;;;;;;;;;5006660;28;20481;-58
2021/11/04 01:18:54;;;;;;;2.97;1.85;;;;;;;;;;5006508;28;20519;-58
2021/11/04 01:21:40;;;;;;;4.15;2.33;;;;;;;;;;5010055;28;20044;-62
2021/11/04 01:24:25;;;;;;;3.15;2.00;;;;;;;;;;5013978;28;20031;-60
2021/11/04 01:27:10;;;;;;;4.22;1.88;;;;;;;;;;5014932;28;20041;-75
2021/11/04 01:29:55;;;;;;;2.58;1.90;;;;;;;;;;5010365;28;20473;-60
2021/11/04 01:32:41;;;;;;;4.05;1.73;;;;;;;;;;5013747;28;20033;-61
2021/11/04 01:35:26;;;;;;;4.03;1.65;;;;;;;;;;5006164;28;20362;-60
2021/11/04 01:38:11;;;;;;;3.03;1.58;;;;;;;;;;5001860;28;20591;-58
2021/11/04 01:40:56;;;;;;;2.47;1.50;;;;;;;;;;5010140;28;20040;-60
2021/11/04 01:43:43;;;;;;;3.17;2.28;;;;;;;;;;5007042;28;20075;-60
2021/11/04 01:46:28;;;;;;;9.45;1.88;;;;;;;;;;5012371;28;20033;-66
2021/11/04 01:49:14;;;;;;;2.28;1.60;;;;;;;;;;5011960;28;20132;-61
2021/11/04 01:51:59;;;;;;;4.28;1.50;;;;;;;;;;5013697;28;20123;-62
2021/11/04 01:54:44;;;;;;;2.63;1.25;;;;;;;;;;5009333;28;20030;-62
2021/11/04 01:57:30;;;;;;;2.65;1.52;;;;;;;;;;5007032;28;21705;-63
2021/11/04 02:00:19;;;;;;;3.38;1.58;;;;;;;;;;5009550;28;20127;-62
2021/11/04 02:03:11;;;;;;;2.55;1.30;;;;;;;;;;5009314;28;20075;-72
2021/11/04 02:06:11;;;;;;;1.50;1.23;;;;;;;;;;5012936;28;20037;-70
2021/11/04 02:09:01;;;;;;;1.85;1.30;;;;;;;;;;5021807;28;20082;-69
2021/11/04 02:11:52;;;;;;;1.80;1.30;;;;;;;;;;5005677;28;20026;-69
2021/11/04 02:14:42;;;;;;;5.15;1.20;;;;;;;;;;5012628;28;20378;-68
2021/11/04 02:17:28;;;;;;;2.78;1.48;;;;;;;;;;5011899;28;20385;-70
2021/11/04 02:20:22;;;;;;;2.35;1.58;;;;;;;;;;5013499;28;20531;-61
2021/11/04 02:23:17;;;;;;;1.38;1.15;;;;;;;;;;4994381;28;20029;-60
2021/11/04 02:26:03;;;;;;;2.28;1.42;;;;;;;;;;4998925;28;20099;-72
2021/11/04 02:28:50;;;;;;;1.95;1.35;;;;;;;;;;5001971;28;20033;-73
2021/11/04 02:31:35;;;;;;;3.15;1.20;;;;;;;;;;5010792;28;20062;-72
2021/11/04 02:34:21;;;;;;;1.77;1.40;;;;;;;;;;5010538;28;20108;-71
2021/11/04 02:37:10;;;;;;;2.28;1.48;;;;;;;;;;5010951;28;20053;-72
2021/11/04 02:39:56;;;;;;;2.15;1.27;;;;;;;;;;5013834;28;20610;-63
2021/11/04 02:42:42;;;;;;;1.20;1.10;;;;;;;;;;5008442;28;20103;-70
2021/11/04 02:45:28;;;;;;;3.58;1.30;;;;;;;;;;5010626;28;20658;-71
2021/11/04 02:48:19;;;;;;;1.20;1.10;;;;;;;;;;5011021;28;20044;-73
2021/11/04 02:51:04;;;;;;;2.05;1.60;;;;;;;;;;5013445;28;20033;-72
2021/11/04 02:53:50;;;;;;;1.33;1.23;;;;;;;;;;5010064;28;20030;-75
2021/11/04 02:56:46;;;;;;;1.50;1.30;;;;;;;;;;5003253;28;20030;-73
2021/11/04 02:59:31;;;;;;;1.10;1.00;;;;;;;;;;5012034;28;20048;-61
2021/11/04 03:02:16;;;;;;;0.82;0.82;;;;;;;;;;5011829;28;20034;-61
2021/11/04 03:05:02;;;;;;;1.60;1.30;;;;;;;;;;5011205;28;20036;-59
2021/11/04 03:07:47;;;;;;;1.10;1.00;;;;;;;;;;4997045;28;20036;-58
2021/11/04 03:10:33;;;;;;;1.25;1.00;;;;;;;;;;5002903;28;20400;-62
2021/11/04 03:13:18;;;;;;;3.60;1.30;;;;;;;;;;5005676;28;20469;-61
2021/11/04 03:16:03;;;;;;;2.83;1.15;;;;;;;;;;5012246;28;20057;-60
2021/11/04 03:18:49;;;;;;;1.27;1.10;;;;;;;;;;5009384;28;20459;-69
2021/11/04 03:21:36;;;;;;;1.00;0.85;;;;;;;;;;5010007;28;20045;-69
2021/11/04 03:24:23;;;;;;;1.35;0.90;;;;;;;;;;5004418;28;20373;-68
2021/11/04 03:27:09;;;;;;;1.27;0.98;;;;;;;;;;5009369;28;20036;-70
2021/11/04 03:29:55;;;;;;;2.35;1.00;;;;;;;;;;5009739;28;20083;-70
2021/11/04 03:32:41;;;;;;;3.15;1.10;;;;;;;;;;5007461;28;20570;-68
2021/11/04 03:35:27;;;;;;;3.67;2.30;;;;;;;;;;5012271;28;20408;-59
2021/11/04 03:38:13;;;;;;;1.05;0.93;;;;;;;;;;5008002;28;20087;-62
2021/11/04 03:41:00;;;;;;;1.67;1.00;;;;;;;;;;5015292;28;20056;-60
2021/11/04 03:43:46;;;;;;;4.13;0.88;;;;;;;;;;5001966;28;20431;-59
2021/11/04 03:46:32;;;;;;;2.95;0.95;;;;;;;;;;5012832;28;20378;-59
2021/11/04 03:49:18;;;;;;;1.52;0.73;;;;;;;;;;5013161;28;20033;-61
2021/11/04 03:52:04;;;;;;;2.42;1.02;;;;;;;;;;5013112;28;20037;-60
2021/11/04 03:54:50;;;;;;;3.00;0.80;;;;;;;;;;5015669;28;20021;-70
2021/11/04 03:57:39;;;;;;;0.80;0.80;;;;;;;;;;5026855;28;20041;-71
2021/11/04 04:00:24;;;;;;;0.75;0.75;;;;;;;;;;5014957;28;20041;-71
2021/11/04 04:03:09;;;;;;;0.85;0.85;;;;;;;;;;5016331;28;20165;-71
2021/11/04 04:06:02;;;;;;;0.75;0.60;;;;;;;;;;5014620;28;20038;-70
2021/11/04 04:08:49;;;;;;;0.68;0.68;;;;;;;;;;5005701;28;20045;-71
2021/11/04 04:11:34;;;;;;;1.50;0.75;;;;;;;;;;5018218;28;20163;-65
2021/11/04 04:14:20;;;;;;;2.22;1.00;;;;;;;;;;5012007;28;20473;-59
2021/11/04 04:17:05;;;;;;;0.75;0.75;;;;;;;;;;5012569;28;20037;-60
2021/11/04 04:19:51;;;;;;;0.70;0.70;;;;;;;;;;5014217;28;20033;-61
2021/11/04 04:22:36;;;;;;;0.65;0.65;;;;;;;;;;5009078;28;20029;-59
2021/11/04 04:25:21;;;;;;;0.70;0.70;;;;;;;;;;5002628;28;20048;-59
2021/11/04 04:28:07;;;;;;;0.77;0.77;;;;;;;;;;5016196;28;20045;-60
2021/11/04 04:30:52;;;;;;;3.47;0.85;;;;;;;;;;5014650;28;20034;-60
2021/11/04 04:33:37;;;;;;;0.95;0.80;;;;;;;;;;4989863;28;20025;-60
2021/11/04 04:36:22;;;;;;;1.52;0.90;;;;;;;;;;5008158;28;20075;-59
2021/11/04 04:39:08;;;;;;;1.13;1.02;;;;;;;;;;5012201;28;20030;-60
2021/11/04 04:41:53;;;;;;;1.58;0.80;;;;;;;;;;5011043;28;20301;-58
2021/11/04 04:44:38;;;;;;;2.10;0.90;;;;;;;;;;5015623;28;20112;-59
2021/11/04 04:47:24;;;;;;;1.75;0.75;;;;;;;;;;5013559;28;20440;-59
2021/11/04 04:50:10;;;;;;;1.52;1.02;;;;;;;;;;5014310;28;20026;-60
2021/11/04 04:52:55;;;;;;;1.67;0.88;;;;;;;;;;5010066;28;20018;-65
2021/11/04 04:55:40;;;;;;;3.25;0.90;;;;;;;;;;5013799;28;20033;-64
2021/11/04 04:58:26;;;;;;;1.77;0.98;;;;;;;;;;5012469;28;20263;-64
2021/11/04 05:01:11;;;;;;;1.10;1.00;;;;;;;;;;5012225;28;20036;-63
2021/11/04 05:03:56;;;;;;;1.00;0.90;;;;;;;;;;5012629;28;20104;-62
2021/11/04 05:06:41;;;;;;;2.72;1.00;;;;;;;;;;5014362;28;20523;-61
2021/11/04 05:09:27;;;;;;;1.38;0.80;;;;;;;;;;5013860;28;20026;-63
2021/11/04 05:12:12;;;;;;;1.15;1.05;;;;;;;;;;5010517;28;20432;-62
2021/11/04 05:14:57;;;;;;;1.33;0.80;;;;;;;;;;5010540;28;20065;-62
2021/11/04 05:17:43;;;;;;;2.35;0.90;;;;;;;;;;5009181;28;20036;-66
2021/11/04 05:20:29;;;;;;;0.93;0.82;;;;;;;;;;5014111;28;20128;-63
2021/11/04 05:23:14;;;;;;;3.90;0.88;;;;;;;;;;5011132;28;20676;-64
2021/11/04 05:25:59;;;;;;;3.30;1.20;;;;;;;;;;5001335;28;20030;-64
2021/11/04 05:28:45;;;;;;;1.45;0.98;;;;;;;;;;5013662;28;20033;-62
2021/11/04 05:31:30;;;;;;;1.40;0.75;;;;;;;;;;5011107;28;20084;-62
2021/11/04 05:34:15;;;;;;;0.93;0.80;;;;;;;;;;5009650;28;20420;-63
2021/11/04 05:37:01;;;;;;;0.80;0.80;;;;;;;;;;5012035;28;20145;-62
2021/11/04 05:39:46;;;;;;;4.63;2.30;;;;;;;;;;5000039;28;20116;-62
2021/11/04 05:42:32;;;;;;;6.72;3.80;;;;;;;;;;5014136;28;20079;-60
2021/11/04 05:45:17;;;;;;;2.83;1.38;;;;;;;;;;5013998;28;20029;-64
2021/11/04 05:48:02;;;;;;;2.38;0.80;;;;;;;;;;5014524;28;20037;-65
2021/11/04 05:50:48;;;;;;;1.00;0.90;;;;;;;;;;5007577;28;20469;-63
2021/11/04 05:53:33;;;;;;;1.15;0.77;;;;;;;;;;5011292;28;20025;-64
2021/11/04 05:56:18;;;;;;;3.00;0.75;;;;;;;;;;5003344;28;20105;-63
2021/11/04 05:59:03;;;;;;;0.98;0.77;;;;;;;;;;5005081;28;20021;-64
2021/11/04 06:01:49;;;;;;;1.88;0.80;;;;;;;;;;4998347;28;20176;-65
2021/11/04 06:04:35;;;;;;;4.22;0.95;;;;;;;;;;5006422;28;20419;-63
2021/11/04 06:07:21;;;;;;;1.95;0.95;;;;;;;;;;5014713;28;20044;-61
2021/11/04 06:10:06;;;;;;;0.70;0.70;;;;;;;;;;5010707;28;20091;-63
2021/11/04 06:12:51;;;;;;;0.80;0.80;;;;;;;;;;5013157;28;20033;-61
2021/11/04 06:15:37;;;;;;;1.55;1.02;;;;;;;;;;5000067;28;20158;-61
2021/11/04 06:18:22;;;;;;;7.10;3.65;;;;;;;;;;5004939;28;20034;-60
2021/11/04 06:21:08;;;;;;;10.52;5.43;;;;;;;;;;5012325;28;20048;-63
2021/11/04 06:23:53;;;;;;;7.40;4.15;;;;;;;;;;5012429;28;20480;-62
2021/11/04 06:26:38;;;;;;;3.83;1.75;;;;;;;;;;5026284;28;20029;-62
2021/11/04 06:29:24;;;;;;;2.28;1.50;;;;;;;;;;5010552;28;20018;-62
2021/11/04 06:32:09;;;;;;;2.28;1.35;;;;;;;;;;5009824;28;20041;-61
2021/11/04 06:34:54;;;;;;;2.13;1.08;;;;;;;;;;4999881;28;20492;-61
2021/11/04 06:37:39;;;;;;;1.80;1.00;;;;;;;;;;5012675;28;20032;-61
2021/11/04 06:40:27;;;;;;;3.63;1.15;;;;;;;;;;5013438;28;20040;-63
2021/11/04 06:43:12;;;;;;;5.20;2.80;;;;;;;;;;5012673;28;20030;-64
2021/11/04 06:46:00;;;;;;;10.10;6.47;;;;;;;;;;5012737;28;20477;-62
2021/11/04 06:48:51;;;;;;;5.25;2.90;;;;;;;;;;5012854;28;20112;-63
2021/11/04 06:51:38;;;;;;;2.22;1.48;;;;;;;;;;5012578;28;20166;-64
2021/11/04 06:54:24;;;;;;;1.40;1.00;;;;;;;;;;4997312;28;20029;-62
2021/11/04 06:57:15;;;;;;;1.90;1.20;;;;;;;;;;5011205;28;20071;-62
2021/11/04 07:00:03;;;;;;;1.00;0.90;;;;;;;;;;5011258;28;20041;-64
2021/11/04 07:02:51;;;;;;;3.20;1.10;;;;;;;;;;5013281;28;20336;-65
2021/11/04 07:05:36;;;;;;;1.90;1.10;;;;;;;;;;5007207;28;20468;-64
2021/11/04 07:08:23;;;;;;;1.15;1.02;;;;;;;;;;5003319;28;20420;-66
2021/11/04 07:11:09;;;;;;;1.10;0.80;;;;;;;;;;5006150;28;20223;-62
2021/11/04 07:13:54;;;;;;;1.48;1.38;;;;;;;;;;5009388;28;21131;-63
2021/11/04 07:16:40;;;;;;;3.08;1.60;;;;;;;;;;5015444;28;20037;-61
2021/11/04 07:19:26;;;;;;;3.15;1.40;;;;;;;;;;5016235;28;20477;-64
2021/11/04 07:22:22;;;;;;;2.55;1.10;;;;;;;;;;5011429;28;20064;-62
2021/11/04 07:25:10;;;;;;;2.28;1.23;;;;;;;;;;5012074;28;20037;-65
2021/11/04 07:27:55;;;;;;;2.72;1.50;;;;;;;;;;5015410;28;20037;-64
2021/11/04 07:30:41;;;;;;;1.77;1.10;;;;;;;;;;5016002;28;20029;-65
2021/11/04 07:33:30;;;;;;;34.65;24.92;;;;;;;;;;5011937;28;20029;-65
2021/11/04 07:36:16;;;;;;;7.20;2.58;;;;;;;;;;5011360;28;20025;-65
2021/11/04 07:39:03;;;;;;;2.42;1.55;;;;;;;;;;5014977;28;20103;-66
2021/11/04 07:41:49;;;;;;;1.95;1.75;;;;;;;;;;5016709;28;20052;-63
2021/11/04 07:44:35;;;;;;;1.98;1.25;;;;;;;;;;5014815;28;20033;-63
2021/11/04 07:47:20;;;;;;;1.75;1.33;;;;;;;;;;5012807;28;20591;-64
2021/11/04 07:50:06;;;;;;;2.38;1.33;;;;;;;;;;5011795;28;20033;-63
2021/11/04 07:52:52;;;;;;;3.15;1.38;;;;;;;;;;5012164;28;20128;-64
2021/11/04 07:55:37;;;;;;;2.30;1.33;;;;;;;;;;5005008;28;20022;-62
2021/11/04 07:58:22;;;;;;;3.40;1.85;;;;;;;;;;5014998;28;20048;-60
2021/11/04 08:01:07;;;;;;;2.08;1.40;;;;;;;;;;5015808;28;20044;-60
2021/11/04 08:03:53;;;;;;;3.08;1.45;;;;;;;;;;5016521;28;20037;-61
2021/11/04 08:06:38;;;;;;;6.15;3.28;;;;;;;;;;5011078;28;20053;-61
2021/11/04 08:09:23;;;;;;;2.60;1.70;;;;;;;;;;5007399;28;20623;-60
2021/11/04 08:12:09;;;;;;;3.17;1.60;;;;;;;;;;5003119;28;20379;-64
2021/11/04 08:14:54;;;;;;;8.60;1.60;;;;;;;;;;4994738;28;20428;-62
2021/11/04 08:17:39;;;;;;;3.28;1.70;;;;;;;;;;5004605;28;20037;-61
2021/11/04 08:20:24;;;;;;;3.35;2.08;;;;;;;;;;5011848;28;20041;-62
2021/11/04 08:23:14;;;;;;;2.95;1.90;;;;;;;;;;5004181;28;20045;-63
2021/11/04 08:26:00;;;;;;;2.63;1.70;;;;;;;;;;5011655;28;20072;-60
2021/11/04 08:28:45;;;;;;;3.47;2.20;;;;;;;;;;5016162;28;20112;-62
2021/11/04 08:31:30;;;;;;;3.88;2.03;;;;;;;;;;5003797;28;20469;-60
2021/11/04 08:34:16;;;;;;;3.13;2.40;;;;;;;;;;5006188;28;20029;-63
2021/11/04 08:37:03;;;;;;;3.65;1.90;;;;;;;;;;5013170;28;20091;-60
2021/11/04 08:39:48;;;;;;;3.40;2.08;;;;;;;;;;5023937;28;20036;-62
2021/11/04 08:42:33;;;;;;;3.67;2.50;;;;;;;;;;5011765;28;20029;-61
2021/11/04 08:45:19;;;;;;;26.13;18.55;;;;;;;;;;5013571;28;20515;-64
2021/11/04 08:48:04;;;;;;;4.18;2.72;;;;;;;;;;5028727;28;20029;-62
2021/11/04 08:50:50;;;;;;;5.18;2.55;;;;;;;;;;5006761;28;20037;-65
2021/11/04 08:53:35;;;;;;;4.53;2.30;;;;;;;;;;5010264;28;20040;-66
2021/11/04 08:56:20;;;;;;;3.28;2.30;;;;;;;;;;5010782;28;20038;-64
2021/11/04 08:59:06;;;;;;;5.25;2.38;;;;;;;;;;5010525;28;20068;-63
2021/11/04 09:01:51;;;;;;;4.68;2.25;;;;;;;;;;5006699;28;20037;-60
2021/11/04 09:04:38;;;;;;;3.70;2.17;;;;;;;;;;5029161;28;20030;-61
2021/11/04 09:07:23;;;;;;;4.57;2.28;;;;;;;;;;5013307;28;20679;-62
2021/11/04 09:10:09;;;;;;;2.60;2.08;;;;;;;;;;4987632;28;20496;-61
2021/11/04 09:12:55;;;;;;;3.85;2.20;;;;;;;;;;5006999;28;20099;-61
2021/11/04 09:15:41;;;;;;;4.72;2.53;;;;;;;;;;5013626;28;20041;-60
2021/11/04 09:18:26;;;;;;;4.90;1.85;;;;;;;;;;5003928;28;20508;-62
2021/11/04 09:21:11;;;;;;;9.45;2.45;;;;;;;;;;5008799;28;20485;-62
2021/11/04 09:23:56;;;;;;;3.53;2.22;;;;;;;;;;5013497;28;20034;-64
2021/11/04 09:26:42;;;;;;;4.05;2.00;;;;;;;;;;5009258;28;20103;-61
2021/11/04 09:29:27;;;;;;;3.42;2.13;;;;;;;;;;5006474;28;20397;-61
2021/11/04 09:32:12;;;;;;;2.92;2.10;;;;;;;;;;5007307;28;20083;-61
2021/11/04 09:35:01;;;;;;;2.63;1.60;;;;;;;;;;5002876;28;20029;-60
2021/11/04 09:37:46;;;;;;;2.47;1.85;;;;;;;;;;5000067;28;20029;-61
2021/11/04 09:40:32;;;;;;;7.88;1.92;;;;;;;;;;5026524;28;20404;-61
2021/11/04 09:43:18;;;;;;;2.75;1.83;;;;;;;;;;5004388;28;20468;-65
2021/11/04 09:46:03;;;;;;;2.20;1.60;;;;;;;;;;4991545;28;20025;-61
2021/11/04 09:48:48;;;;;;;3.97;1.50;;;;;;;;;;5007325;28;20022;-61
2021/11/04 09:51:33;;;;;;;2.08;1.67;;;;;;;;;;5009445;28;20068;-64
2021/11/04 09:54:19;;;;;;;3.10;1.60;;;;;;;;;;4999974;28;20377;-61
2021/11/04 09:57:08;;;;;;;1.60;1.50;;;;;;;;;;5010089;28;20045;-61
2021/11/04 09:59:54;;;;;;;1.52;1.10;;;;;;;;;;5012453;28;20519;-61
2021/11/04 10:02:43;;;;;;;2.10;1.05;;;;;;;;;;5008989;28;20029;-60
2021/11/04 10:05:28;;;;;;;2.33;1.00;;;;;;;;;;5019779;28;20033;-61
2021/11/04 10:08:15;;;;;;;3.20;1.10;;;;;;;;;;5014160;28;20078;-60
2021/11/04 10:11:11;;;;;;;2.22;1.10;;;;;;;;;;5011270;28;20033;-61
2021/11/04 10:14:04;;;;;;;1.70;0.90;;;;;;;;;;5010954;28;20103;-64
2021/11/04 10:16:49;;;;;;;1.10;1.00;;;;;;;;;;5010134;28;20052;-61
2021/11/04 10:19:39;;;;;;;1.52;0.85;;;;;;;;;;5005325;28;20033;-60
2021/11/04 10:22:27;;;;;;;2.67;1.00;;;;;;;;;;5003752;28;20076;-64
2021/11/04 10:25:25;;;;;;;1.13;0.88;;;;;;;;;;5011297;28;20144;-63
2021/11/04 10:28:28;;;;;;;0.90;0.85;;;;;;;;;;5007591;28;20060;-63
2021/11/04 10:31:15;;;;;;;1.52;1.00;;;;;;;;;;5011111;28;20029;-64
2021/11/04 10:34:01;;;;;;;2.20;1.00;;;;;;;;;;5009688;28;20022;-63
2021/11/04 10:36:47;;;;;;;1.30;1.20;;;;;;;;;;5010333;28;20037;-63
2021/11/04 10:39:35;;;;;;;1.23;0.98;;;;;;;;;;5004894;28;20091;-63
2021/11/04 10:42:21;;;;;;;1.05;0.80;;;;;;;;;;5011237;28;20113;-64
2021/11/04 10:45:20;;;;;;;1.17;1.08;;;;;;;;;;5011332;28;20047;-63
2021/11/04 10:48:18;;;;;;;2.90;1.13;;;;;;;;;;5009007;28;20369;-65
2021/11/04 10:51:03;;;;;;;1.25;0.93;;;;;;;;;;5012835;28;20036;-65
2021/11/04 10:53:58;;;;;;;0.95;0.82;;;;;;;;;;5017862;28;20036;-64
2021/11/04 10:56:44;;;;;;;2.25;1.15;;;;;;;;;;5002857;28;20056;-64
2021/11/04 10:59:38;;;;;;;1.50;1.30;;;;;;;;;;5004906;28;20526;-65
2021/11/04 11:02:23;;;;;;;0.85;0.85;;;;;;;;;;5012194;28;20504;-63
2021/11/04 11:05:24;;;;;;;1.00;0.82;;;;;;;;;;5017534;28;20025;-65
2021/11/04 11:08:10;;;;;;;3.05;1.40;;;;;;;;;;5026683;28;20095;-68
2021/11/04 11:10:55;;;;;;;1.20;1.05;;;;;;;;;;5017621;28;20112;-64
2021/11/04 11:13:40;;;;;;;2.10;1.00;;;;;;;;;;5013252;28;20121;-65
2021/11/04 11:16:26;;;;;;;1.63;1.20;;;;;;;;;;5004097;28;20037;-62
2021/11/04 11:19:11;;;;;;;1.58;1.15;;;;;;;;;;5012763;28;20070;-66
2021/11/04 11:21:57;;;;;;;1.88;1.30;;;;;;;;;;5016475;28;20033;-67
2021/11/04 11:24:44;;;;;;;3.15;1.10;;;;;;;;;;5016112;28;20112;-66
2021/11/04 11:27:29;;;;;;;4.00;1.25;;;;;;;;;;5008474;28;20592;-67
2021/11/04 11:30:14;;;;;;;2.33;1.35;;;;;;;;;;5016678;28;20035;-66
2021/11/04 11:33:19;;;;;;;2.83;1.50;;;;;;;;;;5013001;28;20021;-64
2021/11/04 11:36:09;;;;;;;2.53;1.80;;;;;;;;;;5009843;28;20056;-63
2021/11/04 11:38:54;;;;;;;3.25;1.60;;;;;;;;;;5013957;28;20384;-63
2021/11/04 11:41:52;;;;;;;5.97;4.05;;;;;;;;;;5007743;28;20120;-61
2021/11/04 11:44:46;;;;;;;11.82;7.20;;;;;;;;;;5004500;28;20028;-62
2021/11/04 11:47:31;;;;;;;3.25;2.17;;;;;;;;;;5015873;28;20103;-63
2021/11/04 11:50:20;;;;;;;3.78;2.55;;;;;;;;;;5005688;28;20064;-61
2021/11/04 11:53:19;;;;;;;5.13;2.87;;;;;;;;;;4999685;28;20033;-64
2021/11/04 11:56:09;;;;;;;4.03;2.93;;;;;;;;;;5000766;28;20021;-66
2021/11/04 11:59:14;;;;;;;4.00;2.97;;;;;;;;;;5012048;28;20469;-66
2021/11/04 12:01:59;;;;;;;7.10;3.47;;;;;;;;;;5012893;28;20079;-67
2021/11/04 12:04:46;;;;;;;5.38;3.10;;;;;;;;;;5019141;28;20075;-66
2021/11/04 12:07:31;;;;;;;4.97;3.35;;;;;;;;;;5016430;28;20045;-66
2021/11/04 12:10:29;;;;;;;5.53;3.80;;;;;;;;;;5011959;28;20152;-63
2021/11/04 12:13:34;;;;;;;14.32;9.55;;;;;;;;;;5014375;28;20051;-63
2021/11/04 12:16:22;;;;;;;7.85;4.70;;;;;;;;;;5027106;28;20049;-65
2021/11/04 12:19:08;;;;;;;6.55;3.65;;;;;;;;;;5004093;28;20028;-63
2021/11/04 12:21:53;;;;;;;4.55;3.63;;;;;;;;;;5005704;28;20045;-65
2021/11/04 12:24:47;;;;;;;5.82;3.60;;;;;;;;;;5006823;28;20135;-62
2021/11/04 12:27:33;;;;;;;6.57;3.78;;;;;;;;;;5015562;28;20029;-62
2021/11/04 12:30:20;;;;;;;5.30;3.33;;;;;;;;;;5012015;28;20036;-63
2021/11/04 12:33:08;;;;;;;4.47;3.28;;;;;;;;;;5013717;28;20662;-62
2021/11/04 12:35:59;;;;;;;5.28;4.07;;;;;;;;;;5011165;28;20044;-64
2021/11/04 12:38:45;;;;;;;5.20;4.05;;;;;;;;;;5015204;28;20026;-64
2021/11/04 12:41:30;;;;;;;5.20;3.60;;;;;;;;;;5014884;28;20068;-65
2021/11/04 12:44:20;;;;;;;6.55;3.65;;;;;;;;;;5010455;28;20030;-62
2021/11/04 12:47:06;;;;;;;4.47;3.50;;;;;;;;;;5014786;28;20037;-62
2021/11/04 12:49:53;;;;;;;5.47;3.70;;;;;;;;;;5013984;28;20029;-63
2021/11/04 12:52:38;;;;;;;6.43;3.97;;;;;;;;;;5014819;28;20039;-62
2021/11/04 12:55:23;;;;;;;4.78;3.60;;;;;;;;;;5013639;28;20460;-63
2021/11/04 12:58:09;;;;;;;6.15;4.15;;;;;;;;;;5029743;28;20021;-64
2021/11/04 13:00:59;;;;;;;5.72;3.90;;;;;;;;;;5014429;28;20487;-62
2021/11/04 13:03:44;;;;;;;;;;;;;;;;;;5015049;28;20029;-62
2021/11/04 13:06:29;;;;;;;4.75;3.85;;;;;;;;;;5013254;28;20137;-62
2021/11/04 13:09:15;;;;;;;5.15;3.80;;;;;;;;;;5015268;28;20025;-64
2021/11/04 13:12:04;;;;;;;5.00;3.65;;;;;;;;;;5014323;28;20044;-62
2021/11/04 13:14:58;;;;;;;6.57;4.05;;;;;;;;;;4996605;28;20042;-64
2021/11/04 13:17:45;;;;;;;8.77;5.03;;;;;;;;;;4988240;28;20414;-65
2021/11/04 13:20:38;;;;;;;6.80;4.63;;;;;;;;;;4981205;28;20062;-66
2021/11/04 13:23:25;;;;;;;7.35;5.10;;;;;;;;;;4982759;28;20022;-63
2021/11/04 13:26:10;;;;;;;6.10;4.45;;;;;;;;;;4988912;28;20034;-63
2021/11/04 13:28:55;;;;;;;8.45;5.43;;;;;;;;;;4986211;28;20410;-62
2021/11/04 13:31:40;;;;;;;7.45;5.28;;;;;;;;;;4989045;28;20285;-62
2021/11/04 13:34:33;;;;;;;7.60;5.25;;;;;;;;;;4964113;28;20399;-61
2021/11/04 13:37:19;;;;;;;7.63;4.85;;;;;;;;;;4985657;28;20033;-61
2021/11/04 13:40:04;;;;;;;8.45;4.95;;;;;;;;;;4970448;28;20042;-62
2021/11/04 13:42:50;;;;;;;13.98;11.52;;;;;;;;;;4985526;28;20092;-64
2021/11/04 13:45:35;;;;;;;21.98;15.75;;;;;;;;;;5001863;28;20504;-63
2021/11/04 13:48:27;;;;;;;11.23;5.65;;;;;;;;;;4988066;28;20042;-63
2021/11/04 13:51:25;;;;;;;6.65;4.70;;;;;;;;;;4975726;28;20030;-62
2021/11/04 13:54:19;;;;;;;6.93;4.63;;;;;;;;;;4987151;28;20109;-62
2021/11/04 13:57:08;;;;;;;6.78;4.65;;;;;;;;;;4985771;28;20041;-66
2021/11/04 13:59:56;;;;;;;7.03;4.78;;;;;;;;;;4985760;28;20501;-63
2021/11/04 14:02:42;;;;;;;5.78;4.28;;;;;;;;;;4987323;28;20501;-63
2021/11/04 14:05:46;;;;;;;7.20;4.55;;;;;;;;;;4973673;28;20489;-64
2021/11/04 14:08:36;;;;;;;6.88;4.53;;;;;;;;;;4982939;28;20109;-64
2021/11/04 14:11:27;;;;;;;7.38;4.30;;;;;;;;;;4989219;28;20069;-66
2021/11/04 14:14:13;;;;;;;6.43;3.97;;;;;;;;;;4994102;28;20041;-63
2021/11/04 14:17:04;;;;;;;5.50;4.07;;;;;;;;;;5008066;28;20036;-65
2021/11/04 14:19:50;;;;;;;6.00;4.22;;;;;;;;;;5009251;28;20097;-64
2021/11/04 14:22:38;;;;;;;10.52;7.05;;;;;;;;;;5014547;28;20039;-59
2021/11/04 14:25:23;;;;;;;6.18;4.20;;;;;;;;;;5012831;28;20116;-60
2021/11/04 14:28:08;;;;;;;7.05;4.60;;;;;;;;;;4999861;28;20333;-59
2021/11/04 14:30:54;;;;;;;5.88;3.88;;;;;;;;;;5010749;28;20032;-61
2021/11/04 14:33:39;;;;;;;5.32;3.90;;;;;;;;;;4988858;28;20029;-60
2021/11/04 14:36:26;;;;;;;6.78;4.35;;;;;;;;;;5011643;28;20036;-61
2021/11/04 14:39:11;;;;;;;10.32;4.32;;;;;;;;;;5009129;28;20040;-60
2021/11/04 14:41:57;;;;;;;5.28;3.95;;;;;;;;;;5007370;28;20469;-62
2021/11/04 14:44:42;;;;;;;24.92;16.23;;;;;;;;;;5009075;28;20511;-61
2021/11/04 14:47:27;;;;;;;11.00;7.38;;;;;;;;;;5008945;28;20038;-61
2021/11/04 14:50:13;;;;;;;5.05;3.53;;;;;;;;;;5006590;28;20037;-62
2021/11/04 14:52:59;;;;;;;5.88;3.45;;;;;;;;;;5012549;28;20045;-64
2021/11/04 14:55:45;;;;;;;5.20;3.60;;;;;;;;;;5011225;28;20028;-66
2021/11/04 14:58:30;;;;;;;5.95;3.33;;;;;;;;;;5007982;28;20033;-60
2021/11/04 15:01:16;;;;;;;4.25;2.97;;;;;;;;;;5010322;28;20428;-64
2021/11/04 15:04:01;;;;;;;7.55;3.80;;;;;;;;;;4999967;28;20460;-61
2021/11/04 15:06:46;;;;;;;4.60;3.20;;;;;;;;;;5013190;28;20025;-63
2021/11/04 15:09:31;;;;;;;3.78;2.92;;;;;;;;;;5018658;28;20531;-62
2021/11/04 15:12:17;;;;;;;4.10;2.35;;;;;;;;;;5025944;28;20025;-62
2021/11/04 15:15:03;;;;;;;3.60;2.53;;;;;;;;;;4994051;28;20184;-62
2021/11/04 15:17:48;;;;;;;3.65;2.50;;;;;;;;;;5011950;28;20064;-61
2021/11/04 15:20:34;;;;;;;4.13;2.60;;;;;;;;;;5013173;28;20076;-60
2021/11/04 15:23:19;;;;;;;3.03;2.10;;;;;;;;;;5012800;28;20550;-63
2021/11/04 15:26:05;;;;;;;5.75;2.40;;;;;;;;;;5006062;28;20033;-62
2021/11/04 15:28:50;;;;;;;4.10;2.40;;;;;;;;;;5006399;28;20503;-62
2021/11/04 15:31:36;;;;;;;2.60;2.20;;;;;;;;;;5011046;28;20396;-62
2021/11/04 15:34:21;;;;;;;3.13;2.00;;;;;;;;;;5008964;28;20029;-62
2021/11/04 15:37:07;;;;;;;5.03;2.42;;;;;;;;;;5015444;28;20030;-64
2021/11/04 15:39:52;;;;;;;3.05;2.10;;;;;;;;;;5014574;28;20038;-64
2021/11/04 15:42:37;;;;;;;4.95;2.22;;;;;;;;;;5009476;28;20063;-65
2021/11/04 15:45:22;;;;;;;3.13;1.88;;;;;;;;;;5012610;28;20061;-64
2021/11/04 15:48:08;;;;;;;2.25;1.83;;;;;;;;;;5009343;28;20036;-64
2021/11/04 15:50:54;;;;;;;2.75;2.28;;;;;;;;;;5012086;28;20365;-64
2021/11/04 15:53:42;;;;;;;4.28;2.20;;;;;;;;;;5006969;28;20314;-63
2021/11/04 15:56:29;;;;;;;5.50;2.38;;;;;;;;;;5007625;28;20115;-63
2021/11/04 15:59:14;;;;;;;2.63;1.90;;;;;;;;;;5011455;28;20088;-63
2021/11/04 16:02:00;;;;;;;24.60;15.90;;;;;;;;;;5011092;28;20175;-62
2021/11/04 16:04:45;;;;;;;9.02;5.05;;;;;;;;;;5008041;28;21439;-62
2021/11/04 16:07:31;;;;;;;2.08;1.88;;;;;;;;;;5008759;28;20033;-61
2021/11/04 16:10:16;;;;;;;3.58;2.10;;;;;;;;;;5015786;28;20477;-60
2021/11/04 16:13:01;;;;;;;3.38;2.10;;;;;;;;;;5004432;28;20066;-61
2021/11/04 16:15:47;;;;;;;5.15;2.45;;;;;;;;;;5000114;28;20053;-62
2021/11/04 16:18:32;;;;;;;3.30;1.70;;;;;;;;;;5015789;28;20073;-60
2021/11/04 16:21:19;;;;;;;3.17;2.33;;;;;;;;;;5010896;28;20056;-65
2021/11/04 16:24:06;;;;;;;5.28;2.00;;;;;;;;;;5009846;28;20036;-63
2021/11/04 16:26:51;;;;;;;3.42;1.83;;;;;;;;;;5016573;28;20026;-64
2021/11/04 16:29:37;;;;;;;5.28;2.80;;;;;;;;;;5015309;28;20037;-66
2021/11/04 16:32:22;;;;;;;5.70;2.10;;;;;;;;;;5005173;28;20030;-65
2021/11/04 16:35:07;;;;;;;2.17;1.80;;;;;;;;;;5011210;28;20087;-62
2021/11/04 16:37:53;;;;;;;3.50;1.90;;;;;;;;;;5003951;28;20029;-62
2021/11/04 16:40:39;;;;;;;2.75;1.60;;;;;;;;;;5010140;28;20499;-61